createdAt,value
2022-09-11T00:01:56.165Z,100.00
2022-09-11T00:04:27.700Z,100.00
2022-09-11T00:06:56.544Z,100.00
2022-09-11T00:09:25.316Z,100.00
2022-09-11T00:11:54.290Z,100.00
2022-09-11T00:14:25.936Z,100.00
2022-09-11T00:16:54.688Z,100.00
2022-09-11T00:19:23.486Z,100.00
2022-09-11T00:21:52.437Z,100.00
2022-09-11T00:24:21.343Z,100.00
2022-09-11T00:26:50.130Z,100.00
2022-09-11T00:29:19.759Z,100.00
2022-09-11T00:31:50.076Z,100.00
2022-09-11T00:34:19.215Z,100.00
2022-09-11T00:36:48.395Z,100.00
2022-09-11T00:39:18.122Z,100.00
2022-09-11T00:41:49.259Z,100.00
2022-09-11T00:44:55.541Z,100.00
2022-09-11T00:47:30.195Z,100.00
2022-09-11T00:50:08.163Z,100.00
2022-09-11T00:52:42.325Z,100.00
2022-09-11T00:55:15.773Z,100.00
2022-09-11T00:57:47.913Z,100.00
2022-09-11T01:00:17.648Z,100.00
2022-09-11T01:02:50.378Z,100.00
2022-09-11T01:05:22.611Z,100.00
2022-09-11T01:07:54.357Z,100.00
2022-09-11T01:10:37.395Z,100.00
2022-09-11T01:13:12.306Z,100.00
2022-09-11T01:15:49.913Z,100.00
2022-09-11T01:18:31.500Z,100.00
2022-09-11T01:21:33.896Z,100.00
2022-09-11T01:24:17.465Z,100.00
2022-09-11T01:27:01.981Z,100.00
2022-09-11T01:29:39.512Z,100.00
2022-09-11T01:32:16.021Z,100.00
2022-09-11T01:34:53.005Z,100.00
2022-09-11T01:37:29.007Z,100.00
2022-09-11T01:40:10.706Z,100.00
2022-09-11T01:42:44.911Z,100.00
2022-09-11T01:45:17.920Z,100.00
2022-09-11T01:47:50.275Z,100.00
2022-09-11T01:50:21.718Z,100.00
2022-09-11T01:52:54.005Z,100.00
2022-09-11T01:55:29.075Z,100.00
2022-09-11T01:58:03.947Z,100.00
2022-09-11T02:00:37.948Z,100.00
2022-09-11T02:03:11.625Z,100.00
2022-09-11T02:05:45.924Z,100.00
2022-09-11T02:08:21.966Z,100.00
2022-09-11T02:10:55.001Z,100.00
2022-09-11T02:13:29.892Z,100.00
2022-09-11T02:16:06.781Z,100.00
2022-09-11T02:18:44.298Z,100.00
2022-09-11T02:21:13.134Z,100.00
2022-09-11T02:23:42.481Z,100.00
2022-09-11T02:26:14.430Z,100.00
2022-09-11T02:28:43.476Z,100.00
2022-09-11T02:31:13.605Z,100.00
2022-09-11T02:33:43.567Z,100.00
2022-09-11T02:36:41.770Z,100.00
2022-09-11T02:39:23.188Z,100.00
2022-09-11T02:42:08.345Z,100.00
2022-09-11T02:44:42.487Z,100.00
2022-09-11T02:47:27.070Z,100.00
2022-09-11T02:50:04.357Z,100.00
2022-09-11T02:52:46.373Z,100.00
2022-09-11T02:55:23.237Z,100.00
2022-09-11T02:57:58.644Z,100.00
2022-09-11T03:00:28.134Z,100.00
2022-09-11T03:02:59.235Z,100.00
2022-09-11T03:05:29.517Z,100.00
2022-09-11T03:07:58.652Z,100.00
2022-09-11T03:10:28.179Z,100.00
2022-09-11T03:12:59.804Z,100.00
2022-09-11T03:15:32.855Z,100.00
2022-09-11T03:18:05.231Z,100.00
2022-09-11T03:20:34.260Z,100.00
2022-09-11T03:23:08.325Z,100.00
2022-09-11T03:25:37.108Z,100.00
2022-09-11T03:28:07.438Z,100.00
2022-09-11T03:30:36.688Z,100.00
2022-09-11T03:33:07.327Z,100.00
2022-09-11T03:35:37.047Z,100.00
2022-09-11T03:38:05.822Z,100.00
2022-09-11T03:40:34.566Z,100.00
2022-09-11T03:43:05.176Z,100.00
2022-09-11T03:45:34.133Z,100.00
2022-09-11T03:48:03.368Z,100.00
2022-09-11T03:50:34.875Z,100.00
2022-09-11T03:53:03.805Z,100.00
2022-09-11T03:55:32.795Z,100.00
2022-09-11T03:58:02.048Z,100.00
2022-09-11T04:00:31.221Z,100.00
2022-09-11T04:03:00.531Z,100.00
2022-09-11T04:05:44.247Z,100.00
2022-09-11T04:08:14.223Z,100.00
2022-09-11T04:10:45.916Z,100.00
2022-09-11T04:13:16.797Z,100.00
2022-09-11T04:15:45.532Z,100.00
2022-09-11T04:18:14.623Z,100.00
2022-09-11T04:20:44.865Z,100.00
2022-09-11T04:23:14.361Z,100.00
2022-09-11T04:25:45.703Z,100.00
2022-09-11T04:28:14.704Z,100.00
2022-09-11T04:30:43.604Z,100.00
2022-09-11T04:33:12.452Z,100.00
2022-09-11T04:35:41.893Z,100.00
2022-09-11T04:38:11.902Z,100.00
2022-09-11T04:40:40.840Z,100.00
2022-09-11T04:43:12.007Z,100.00
2022-09-11T04:45:43.828Z,100.00
2022-09-11T04:48:17.149Z,100.00
2022-09-11T04:50:48.357Z,100.00
2022-09-11T04:53:26.150Z,100.00
2022-09-11T04:56:03.279Z,100.00
2022-09-11T04:58:38.282Z,100.00
2022-09-11T05:01:09.147Z,100.00
2022-09-11T05:03:39.489Z,100.00
2022-09-11T05:06:11.649Z,100.00
2022-09-11T05:08:43.825Z,100.00
2022-09-11T05:11:14.813Z,100.00
2022-09-11T05:13:45.026Z,100.00
2022-09-11T05:16:17.056Z,100.00
2022-09-11T05:18:52.374Z,100.00
2022-09-11T05:21:25.415Z,100.00
2022-09-11T05:23:58.235Z,100.00
2022-09-11T05:26:29.967Z,100.00
2022-09-11T05:29:01.245Z,100.00
2022-09-11T05:31:32.275Z,100.00
2022-09-11T05:34:02.132Z,100.00
2022-09-11T05:36:32.125Z,100.00
2022-09-11T05:39:02.329Z,100.00
2022-09-11T05:41:31.320Z,100.00
2022-09-11T05:44:00.125Z,100.00
2022-09-11T05:46:29.252Z,100.00
2022-09-11T05:49:03.073Z,100.00
2022-09-11T05:51:36.115Z,100.00
2022-09-11T05:54:06.712Z,100.00
2022-09-11T05:56:36.223Z,100.00
2022-09-11T05:59:15.506Z,100.00
2022-09-11T06:01:47.625Z,100.00
2022-09-11T06:04:23.045Z,100.00
2022-09-11T06:06:54.332Z,100.00
2022-09-11T06:09:24.868Z,100.00
2022-09-11T06:11:54.865Z,100.00
2022-09-11T06:14:23.591Z,100.00
2022-09-11T06:16:57.122Z,100.00
2022-09-11T06:19:27.491Z,100.00
2022-09-11T06:21:58.399Z,100.00
2022-09-11T06:24:36.092Z,100.00
2022-09-11T06:27:05.226Z,100.00
2022-09-11T06:29:36.492Z,100.00
2022-09-11T06:32:06.859Z,100.00
2022-09-11T06:34:36.010Z,100.00
2022-09-11T06:37:09.073Z,100.00
2022-09-11T06:39:39.284Z,100.00
2022-09-11T06:42:08.453Z,100.00
2022-09-11T06:44:38.960Z,100.00
2022-09-11T06:47:08.328Z,100.00
2022-09-11T06:49:38.336Z,100.00
2022-09-11T06:52:21.903Z,100.00
2022-09-11T06:55:05.850Z,100.00
2022-09-11T06:57:39.888Z,100.00
2022-09-11T07:00:14.268Z,100.00
2022-09-11T07:02:43.988Z,100.00
2022-09-11T07:05:13.883Z,100.00
2022-09-11T07:07:44.168Z,100.00
2022-09-11T07:10:14.831Z,100.00
2022-09-11T07:12:45.188Z,100.00
2022-09-11T07:15:14.185Z,100.00
2022-09-11T07:17:42.949Z,100.00
2022-09-11T07:20:14.688Z,100.00
2022-09-11T07:22:45.683Z,100.00
2022-09-11T07:25:18.120Z,100.00
2022-09-11T07:27:48.788Z,100.00
2022-09-11T07:30:20.877Z,100.00
2022-09-11T07:32:54.207Z,100.00
2022-09-11T07:35:23.395Z,100.00
2022-09-11T07:37:59.920Z,100.00
2022-09-11T07:40:31.394Z,100.00
2022-09-11T07:43:03.929Z,100.00
2022-09-11T07:45:32.881Z,100.00
2022-09-11T07:48:02.662Z,100.00
2022-09-11T07:50:33.304Z,100.00
2022-09-11T07:53:02.385Z,100.00
2022-09-11T07:55:35.753Z,100.00
2022-09-11T07:58:05.539Z,100.00
2022-09-11T08:00:37.212Z,100.00
2022-09-11T08:03:15.648Z,100.00
2022-09-11T08:05:44.684Z,100.00
2022-09-11T08:08:15.025Z,100.00
2022-09-11T08:10:45.598Z,100.00
2022-09-11T08:13:15.040Z,100.00
2022-09-11T08:15:50.460Z,100.00
2022-09-11T08:18:22.910Z,100.00
2022-09-11T08:20:53.073Z,100.00
2022-09-11T08:23:22.453Z,100.00
2022-09-11T08:25:54.348Z,100.00
2022-09-11T08:28:23.576Z,100.00
2022-09-11T08:30:58.449Z,100.00
2022-09-11T08:33:27.258Z,100.00
2022-09-11T08:35:56.253Z,100.00
2022-09-11T08:38:25.145Z,100.00
2022-09-11T08:40:55.713Z,100.00
2022-09-11T08:43:27.843Z,100.00
2022-09-11T08:46:05.031Z,100.00
2022-09-11T08:48:39.650Z,100.00
2022-09-11T08:51:14.371Z,100.00
2022-09-11T08:53:44.205Z,100.00
2022-09-11T08:56:19.271Z,100.00
2022-09-11T08:59:13.925Z,100.00
2022-09-11T09:01:54.313Z,100.00
2022-09-11T09:04:41.513Z,100.00
2022-09-11T09:07:20.476Z,100.00
2022-09-11T09:10:01.309Z,100.00
2022-09-11T09:12:41.496Z,100.00
2022-09-11T09:15:37.287Z,100.00
2022-09-11T09:18:12.656Z,100.00
2022-09-11T09:20:51.316Z,100.00
2022-09-11T09:23:22.699Z,100.00
2022-09-11T09:25:53.829Z,100.00
2022-09-11T09:28:26.100Z,100.00
2022-09-11T09:30:58.412Z,100.00
2022-09-11T09:33:34.899Z,100.00
2022-09-11T09:36:17.487Z,100.00
2022-09-11T09:38:47.203Z,100.00
2022-09-11T09:41:43.565Z,100.00
2022-09-11T09:44:25.943Z,100.00
2022-09-11T09:46:56.708Z,100.00
2022-09-11T09:49:28.599Z,100.00
2022-09-11T09:52:04.058Z,100.00
2022-09-11T09:54:36.572Z,100.00
2022-09-11T09:57:10.660Z,100.00
2022-09-11T09:59:45.062Z,100.00
2022-09-11T10:02:13.926Z,100.00
2022-09-11T10:04:42.775Z,100.00
2022-09-11T10:07:14.124Z,100.00
2022-09-11T10:09:50.668Z,100.00
2022-09-11T10:12:23.020Z,100.00
2022-09-11T10:14:56.438Z,100.00
2022-09-11T10:17:33.561Z,100.00
2022-09-11T10:20:23.143Z,100.00
2022-09-11T10:22:53.103Z,100.00
2022-09-11T10:25:26.839Z,100.00
2022-09-11T10:28:03.595Z,100.00
2022-09-11T10:30:40.304Z,100.00
2022-09-11T10:33:20.400Z,100.00
2022-09-11T10:35:55.331Z,100.00
2022-09-11T10:38:31.396Z,100.00
2022-09-11T10:41:08.986Z,100.00
2022-09-11T10:43:48.521Z,100.00
2022-09-11T10:46:40.740Z,100.00
2022-09-11T10:49:23.436Z,100.00
2022-09-11T10:52:05.691Z,100.00
2022-09-11T10:54:47.066Z,100.00
2022-09-11T10:57:22.735Z,100.00
2022-09-11T11:00:02.857Z,100.00
2022-09-11T11:02:35.693Z,100.00
2022-09-11T11:05:08.229Z,100.00
2022-09-11T11:08:24.063Z,100.00
2022-09-11T11:11:06.168Z,100.00
2022-09-11T11:14:04.794Z,100.00
2022-09-11T11:16:47.497Z,100.00
2022-09-11T11:19:36.716Z,100.00
2022-09-11T11:22:13.571Z,100.00
2022-09-11T11:24:59.052Z,100.00
2022-09-11T11:28:03.283Z,100.00
2022-09-11T11:30:38.951Z,100.00
2022-09-11T11:33:26.466Z,100.00
2022-09-11T11:36:03.836Z,100.00
2022-09-11T11:38:42.270Z,100.00
2022-09-11T11:41:16.429Z,100.00
2022-09-11T11:43:48.964Z,100.00
2022-09-11T11:46:22.389Z,100.00
2022-09-11T11:48:59.897Z,100.00
2022-09-11T11:51:40.721Z,100.00
2022-09-11T11:54:19.344Z,100.00
2022-09-11T11:56:51.816Z,100.00
2022-09-11T11:59:28.177Z,100.00
2022-09-11T12:02:03.659Z,100.00
2022-09-11T12:04:47.101Z,100.00
2022-09-11T12:07:22.704Z,100.00
2022-09-11T12:09:54.344Z,100.00
2022-09-11T12:12:29.732Z,100.00
2022-09-11T12:15:06.469Z,100.00
2022-09-11T12:17:37.217Z,100.00
2022-09-11T12:20:32.904Z,100.00
2022-09-11T12:23:03.373Z,100.00
2022-09-11T12:26:05.025Z,100.00
2022-09-11T12:28:35.862Z,100.00
2022-09-11T12:31:07.083Z,100.00
2022-09-11T12:33:56.631Z,100.00
2022-09-11T12:36:33.879Z,100.00
2022-09-11T12:39:17.187Z,100.00
2022-09-11T12:41:47.017Z,100.00
2022-09-11T12:44:33.175Z,100.00
2022-09-11T12:47:17.813Z,100.00
2022-09-11T12:49:57.362Z,100.00
2022-09-11T12:52:34.001Z,100.00
2022-09-11T12:55:24.119Z,100.00
2022-09-11T12:57:53.475Z,100.00
2022-09-11T13:00:25.544Z,100.00
2022-09-11T13:02:57.978Z,100.00
2022-09-11T13:05:29.830Z,100.00
2022-09-11T13:08:03.831Z,100.00
2022-09-11T13:10:38.931Z,60.27
2022-09-11T13:13:57.370Z,43.45
2022-09-11T13:16:50.116Z,41.99
2022-09-11T13:19:19.585Z,46.15
2022-09-11T13:21:52.138Z,46.08
2022-09-11T13:24:25.618Z,38.76
2022-09-11T13:26:58.195Z,36.40
2022-09-11T13:29:30.536Z,40.65
2022-09-11T13:32:00.513Z,39.25
2022-09-11T13:34:30.754Z,33.97
2022-09-11T13:36:59.891Z,33.98
2022-09-11T13:39:29.268Z,35.05
2022-09-11T13:42:03.791Z,38.83
2022-09-11T13:44:45.051Z,34.30
2022-09-11T13:47:20.447Z,34.73
2022-09-11T13:49:51.681Z,32.28
2022-09-11T13:52:23.358Z,37.51
2022-09-11T13:54:55.731Z,57.20
2022-09-11T13:57:29.891Z,46.38
2022-09-11T14:00:00.781Z,42.53
2022-09-11T14:02:47.256Z,58.32
2022-09-11T14:05:21.249Z,54.80
2022-09-11T14:07:57.432Z,55.92
2022-09-11T14:10:31.194Z,45.94
2022-09-11T14:13:10.824Z,41.68
2022-09-11T14:15:43.060Z,45.00
2022-09-11T14:18:25.369Z,48.46
2022-09-11T14:20:56.245Z,65.29
2022-09-11T14:23:28.654Z,72.42
2022-09-11T14:26:14.967Z,92.91
2022-09-11T14:29:00.621Z,100.00
2022-09-11T14:31:34.328Z,100.00
2022-09-11T14:34:19.151Z,100.00
2022-09-11T14:36:53.062Z,93.93
2022-09-11T14:39:29.061Z,67.62
2022-09-11T14:41:59.156Z,74.63
2022-09-11T14:44:33.153Z,72.37
2022-09-11T14:47:05.642Z,76.88
2022-09-11T14:49:36.119Z,93.10
2022-09-11T14:52:07.661Z,100.00
2022-09-11T14:54:37.701Z,100.00
2022-09-11T14:57:17.186Z,100.00
2022-09-11T14:59:50.586Z,100.00
2022-09-11T15:02:27.615Z,100.00
2022-09-11T15:04:58.482Z,100.00
2022-09-11T15:07:28.114Z,100.00
2022-09-11T15:09:57.197Z,100.00
2022-09-11T15:12:30.252Z,100.00
2022-09-11T15:15:00.894Z,100.00
2022-09-11T15:17:31.694Z,100.00
2022-09-11T15:20:01.140Z,100.00
2022-09-11T15:22:33.119Z,100.00
2022-09-11T15:25:02.549Z,100.00
2022-09-11T15:27:31.711Z,100.00
2022-09-11T15:30:02.451Z,100.00
2022-09-11T15:32:31.536Z,100.00
2022-09-11T15:35:00.346Z,100.00
2022-09-11T15:37:29.236Z,100.00
2022-09-11T15:39:58.318Z,100.00
2022-09-11T15:42:27.527Z,100.00
2022-09-11T15:44:56.309Z,100.00
2022-09-11T15:47:26.689Z,100.00
2022-09-11T15:49:55.568Z,100.00
2022-09-11T15:52:24.337Z,100.00
2022-09-11T15:54:53.034Z,100.00
2022-09-11T15:57:22.090Z,100.00
2022-09-11T15:59:52.196Z,100.00
2022-09-11T16:02:21.789Z,100.00
2022-09-11T16:04:53.924Z,100.00
2022-09-11T16:07:23.242Z,100.00
2022-09-11T16:09:52.780Z,100.00
2022-09-11T16:12:25.629Z,100.00
2022-09-11T16:14:57.623Z,100.00
2022-09-11T16:17:31.248Z,100.00
2022-09-11T16:20:01.922Z,100.00
2022-09-11T16:22:32.131Z,100.00
2022-09-11T16:25:01.352Z,100.00
2022-09-11T16:27:30.310Z,100.00
2022-09-11T16:30:32.274Z,100.00
2022-09-11T16:32:49.121Z,100.00
2022-09-11T16:35:20.287Z,100.00
2022-09-11T16:37:49.480Z,100.00
2022-09-11T16:40:19.063Z,100.00
2022-09-11T16:42:48.491Z,100.00
2022-09-11T16:45:17.446Z,100.00
2022-09-11T16:47:46.351Z,100.00
2022-09-11T16:50:15.902Z,100.00
2022-09-11T16:52:46.174Z,100.00
2022-09-11T16:55:15.505Z,100.00
2022-09-11T16:57:50.409Z,100.00
2022-09-11T17:00:20.472Z,100.00
2022-09-11T17:02:51.074Z,100.00
2022-09-11T17:05:20.414Z,100.00
2022-09-11T17:07:50.836Z,100.00
2022-09-11T17:10:19.917Z,100.00
2022-09-11T17:12:50.330Z,100.00
2022-09-11T17:15:20.502Z,100.00
2022-09-11T17:17:49.767Z,100.00
2022-09-11T17:20:19.044Z,100.00
2022-09-11T17:22:47.937Z,100.00
2022-09-11T17:25:18.530Z,100.00
2022-09-11T17:27:52.320Z,100.00
2022-09-11T17:30:25.879Z,100.00
2022-09-11T17:32:54.919Z,100.00
2022-09-11T17:35:24.312Z,100.00
2022-09-11T17:37:54.011Z,100.00
2022-09-11T17:40:24.473Z,100.00
2022-09-11T17:42:53.282Z,100.00
2022-09-11T17:45:23.256Z,100.00
2022-09-11T17:47:52.825Z,100.00
2022-09-11T17:50:22.167Z,100.00
2022-09-11T17:52:51.235Z,100.00
2022-09-11T17:55:21.598Z,100.00
2022-09-11T17:57:55.687Z,100.00
2022-09-11T18:00:27.114Z,100.00
2022-09-11T18:02:58.775Z,100.00
2022-09-11T18:05:29.004Z,100.00
2022-09-11T18:08:00.354Z,100.00
2022-09-11T18:10:29.314Z,100.00
2022-09-11T18:12:59.582Z,100.00
2022-09-11T18:15:28.636Z,100.00
2022-09-11T18:18:00.838Z,100.00
2022-09-11T18:20:30.966Z,100.00
2022-09-11T18:22:59.963Z,100.00
2022-09-11T18:25:30.271Z,100.00
2022-09-11T18:28:00.675Z,100.00
2022-09-11T18:30:34.859Z,100.00
2022-09-11T18:33:10.193Z,100.00
2022-09-11T18:35:47.290Z,100.00
2022-09-11T18:38:16.258Z,100.00
2022-09-11T18:40:45.412Z,100.00
2022-09-11T18:43:17.077Z,100.00
2022-09-11T18:45:48.253Z,100.00
2022-09-11T18:48:20.939Z,100.00
2022-09-11T18:50:51.956Z,100.00
2022-09-11T18:53:22.134Z,100.00
2022-09-11T18:56:00.491Z,100.00
2022-09-11T18:58:38.017Z,100.00
2022-09-11T19:01:08.626Z,100.00
2022-09-11T19:03:40.472Z,100.00
2022-09-11T19:06:13.152Z,100.00
2022-09-11T19:08:48.471Z,100.00
2022-09-11T19:11:21.203Z,100.00
2022-09-11T19:13:52.889Z,100.00
2022-09-11T19:16:24.060Z,100.00
2022-09-11T19:18:53.025Z,100.00
2022-09-11T19:21:23.897Z,100.00
2022-09-11T19:24:00.353Z,100.00
2022-09-11T19:26:32.826Z,100.00
2022-09-11T19:29:03.228Z,100.00
2022-09-11T19:31:32.542Z,100.00
2022-09-11T19:34:02.892Z,100.00
2022-09-11T19:36:33.870Z,100.00
2022-09-11T19:39:03.424Z,100.00
2022-09-11T19:41:34.136Z,100.00
2022-09-11T19:44:06.698Z,100.00
2022-09-11T19:46:37.407Z,100.00
2022-09-11T19:49:07.998Z,100.00
2022-09-11T19:51:38.839Z,100.00
2022-09-11T19:54:08.874Z,100.00
2022-09-11T19:56:38.851Z,100.00
2022-09-11T19:59:09.732Z,100.00
2022-09-11T20:01:40.162Z,100.00
2022-09-11T20:04:09.381Z,100.00
2022-09-11T20:06:38.569Z,100.00
2022-09-11T20:09:29.985Z,100.00
2022-09-11T20:11:57.292Z,100.00
2022-09-11T20:14:28.016Z,100.00
2022-09-11T20:16:56.851Z,100.00
2022-09-11T20:19:25.852Z,100.00
2022-09-11T20:21:54.525Z,100.00
2022-09-11T20:24:23.858Z,100.00
2022-09-11T20:26:54.546Z,100.00
2022-09-11T20:29:23.568Z,100.00
2022-09-11T20:31:55.160Z,100.00
2022-09-11T20:34:27.977Z,100.00
2022-09-11T20:37:00.863Z,100.00
2022-09-11T20:39:29.937Z,100.00
2022-09-11T20:42:00.487Z,100.00
2022-09-11T20:44:31.788Z,100.00
2022-09-11T20:47:05.145Z,100.00
2022-09-11T20:49:35.535Z,100.00
2022-09-11T20:52:19.997Z,100.00
2022-09-11T20:54:49.503Z,100.00
2022-09-11T20:57:18.189Z,100.00
2022-09-11T20:59:47.029Z,100.00
2022-09-11T21:02:19.216Z,100.00
2022-09-11T21:04:49.090Z,100.00
2022-09-11T21:07:18.146Z,100.00
2022-09-11T21:09:47.879Z,100.00
2022-09-11T21:12:16.624Z,100.00
2022-09-11T21:14:45.898Z,100.00
2022-09-11T21:17:14.641Z,100.00
2022-09-11T21:19:45.143Z,100.00
2022-09-11T21:22:14.511Z,100.00
2022-09-11T21:24:44.687Z,100.00
2022-09-11T21:27:13.820Z,100.00
2022-09-11T21:29:43.172Z,100.00
2022-09-11T21:32:11.854Z,100.00
2022-09-11T21:34:40.732Z,100.00
2022-09-11T21:37:13.152Z,100.00
2022-09-11T21:39:41.985Z,100.00
2022-09-11T21:42:12.021Z,100.00
2022-09-11T21:44:41.134Z,100.00
2022-09-11T21:47:10.045Z,100.00
2022-09-11T21:49:38.841Z,100.00
2022-09-11T21:52:07.679Z,100.00
2022-09-11T21:54:38.150Z,100.00
2022-09-11T21:57:07.037Z,100.00
2022-09-11T21:59:35.997Z,100.00
2022-09-11T22:02:05.005Z,100.00
2022-09-11T22:04:34.689Z,100.00
2022-09-11T22:07:03.787Z,100.00
2022-09-11T22:09:32.498Z,100.00
2022-09-11T22:12:03.017Z,100.00
2022-09-11T22:14:32.003Z,100.00
2022-09-11T22:17:00.923Z,100.00
2022-09-11T22:19:30.145Z,100.00
2022-09-11T22:21:59.018Z,100.00
2022-09-11T22:24:27.883Z,100.00
2022-09-11T22:26:56.499Z,100.00
2022-09-11T22:29:26.669Z,100.00
2022-09-11T22:31:55.706Z,100.00
2022-09-11T22:34:25.018Z,100.00
2022-09-11T22:36:53.976Z,100.00
2022-09-11T22:39:22.931Z,100.00
2022-09-11T22:41:52.387Z,100.00
2022-09-11T22:44:21.368Z,100.00
2022-09-11T22:46:51.702Z,100.00
2022-09-11T22:49:20.726Z,100.00
2022-09-11T22:51:49.783Z,100.00
2022-09-11T22:54:18.463Z,100.00
2022-09-11T22:56:47.295Z,100.00
2022-09-11T22:59:16.126Z,100.00
2022-09-11T23:01:45.244Z,100.00
2022-09-11T23:04:15.343Z,100.00
2022-09-11T23:07:01.710Z,100.00
2022-09-11T23:09:30.500Z,100.00
2022-09-11T23:11:59.226Z,100.00
2022-09-11T23:14:27.904Z,100.00
2022-09-11T23:16:56.905Z,100.00
2022-09-11T23:19:28.588Z,100.00
2022-09-11T23:21:57.568Z,100.00
2022-09-11T23:24:27.189Z,100.00
2022-09-11T23:26:55.961Z,100.00
2022-09-11T23:29:26.056Z,100.00
2022-09-11T23:31:57.774Z,100.00
2022-09-11T23:34:27.936Z,100.00
2022-09-11T23:36:56.589Z,100.00
2022-09-11T23:39:25.296Z,100.00
2022-09-11T23:41:55.047Z,100.00
2022-09-11T23:44:25.605Z,100.00
2022-09-11T23:46:54.260Z,100.00
2022-09-11T23:49:23.528Z,100.00
2022-09-11T23:51:53.649Z,100.00
2022-09-11T23:54:22.471Z,100.00
2022-09-11T23:56:53.384Z,100.00
2022-09-11T23:59:22.523Z,100.00
